Time;durP1;ratioP1;P1;durP2;ratioP2;P2;SDS_P1;SDS_P2;PMS_P1;PMS_P2;Temp;Humidity;BMP_temperature;BMP_pressure;BME280_temperature;BME280_humidity;BME280_pressure;Samples;Min_cycle;Max_cycle;Signal;HPM_P1;HPM_P2
2023/10/18 00:01:04;;;;;;;6.10;4.10;;;1.90;99.90;;;;;;5039465;28;20256;-85
2023/10/18 00:03:33;;;;;;;5.57;4.20;;;1.90;99.90;;;;;;5034660;28;20233;-84
2023/10/18 00:06:11;;;;;;;5.70;4.23;;;1.90;99.90;;;;;;5041623;28;20769;-86
2023/10/18 00:08:38;;;;;;;4.10;3.53;;;1.80;99.90;;;;;;5043793;28;20226;-85
2023/10/18 00:11:06;;;;;;;5.70;4.07;;;1.80;99.90;;;;;;5026312;28;20228;-85
2023/10/18 00:13:33;;;;;;;5.00;3.70;;;1.80;99.90;;;;;;5034751;28;20235;-87
2023/10/18 00:16:01;;;;;;;6.07;3.70;;;1.70;99.90;;;;;;5029155;28;20220;-86
2023/10/18 00:18:28;;;;;;;5.43;4.00;;;1.70;99.90;;;;;;5035901;28;20228;-85
2023/10/18 00:21:04;;;;;;;5.87;4.00;;;1.70;99.90;;;;;;5039783;28;20231;-87
2023/10/18 00:23:31;;;;;;;5.87;3.83;;;1.70;99.90;;;;;;5039503;28;20226;-85
2023/10/18 00:26:00;;;;;;;5.67;4.00;;;1.60;99.90;;;;;;5037471;28;20233;-86
2023/10/18 00:28:27;;;;;;;5.20;4.00;;;1.60;99.90;;;;;;5032362;28;20304;-85
2023/10/18 00:30:53;;;;;;;5.27;3.97;;;1.60;99.90;;;;;;5036603;28;20301;-87
2023/10/18 00:33:20;;;;;;;5.63;4.53;;;1.70;99.90;;;;;;5038900;28;20387;-86
2023/10/18 00:35:48;;;;;;;5.53;4.27;;;1.50;99.90;;;;;;5035916;28;20742;-84
2023/10/18 00:38:18;;;;;;;6.67;3.90;;;1.60;99.90;;;;;;5050909;28;20225;-84
2023/10/18 00:40:49;;;;;;;5.07;4.00;;;1.50;99.90;;;;;;5037433;28;20220;-84
2023/10/18 00:43:20;;;;;;;5.07;3.67;;;1.50;99.90;;;;;;5030579;28;20226;-85
2023/10/18 00:45:48;;;;;;;5.77;4.07;;;1.50;99.90;;;;;;5027016;28;20301;-84
2023/10/18 00:48:15;;;;;;;4.40;3.63;;;1.50;99.90;;;;;;5035645;28;20223;-84
2023/10/18 00:50:46;;;;;;;4.93;4.03;;;1.50;99.90;;;;;;5038447;28;20226;-84
2023/10/18 00:53:17;;;;;;;5.40;3.70;;;1.40;99.90;;;;;;5036291;28;20226;-84
2023/10/18 00:55:48;;;;;;;4.67;4.17;;;1.40;99.90;;;;;;5041312;28;20313;-82
2023/10/18 00:58:15;;;;;;;6.67;4.47;;;1.40;99.90;;;;;;5025042;28;20212;-86
2023/10/18 01:00:43;;;;;;;5.83;3.70;;;1.40;99.90;;;;;;5031718;28;20225;-84
2023/10/18 01:03:15;;;;;;;4.90;3.90;;;1.40;99.90;;;;;;5026990;28;20695;-85
2023/10/18 01:05:59;;;;;;;6.37;3.97;;;1.30;99.90;;;;;;5033793;28;20448;-86
2023/10/18 01:08:29;;;;;;;4.90;3.97;;;1.30;99.90;;;;;;5034701;28;20228;-84
2023/10/18 01:11:03;;;;;;;7.90;4.40;;;1.30;99.90;;;;;;5032607;28;20225;-86
2023/10/18 01:13:30;;;;;;;4.40;3.83;;;1.30;99.90;;;;;;5034958;28;21019;-86
2023/10/18 01:15:59;;;;;;;5.77;4.37;;;1.30;99.90;;;;;;5035979;28;20247;-84
2023/10/18 01:18:26;;;;;;;5.13;4.00;;;1.20;99.90;;;;;;5042976;28;20258;-84
2023/10/18 01:20:53;;;;;;;5.27;3.30;;;1.20;99.90;;;;;;5038911;28;20260;-84
2023/10/18 01:23:20;;;;;;;4.10;3.40;;;1.20;99.90;;;;;;5041491;28;20737;-86
2023/10/18 01:25:48;;;;;;;5.20;3.50;;;1.20;99.90;;;;;;5043203;28;20229;-84
2023/10/18 01:28:15;;;;;;;4.37;3.37;;;1.20;99.90;;;;;;5042004;28;20210;-84
2023/10/18 01:30:43;;;;;;;3.87;3.10;;;1.20;99.90;;;;;;5035131;28;20288;-87
2023/10/18 01:33:12;;;;;;;4.23;3.17;;;1.10;99.90;;;;;;5036850;28;20228;-85
2023/10/18 01:35:46;;;;;;;4.63;3.37;;;1.10;99.90;;;;;;5038717;28;20225;-86
2023/10/18 01:38:25;;;;;;;5.67;3.57;;;1.10;99.90;;;;;;5047977;28;20222;-85
2023/10/18 01:40:55;;;;;;;4.20;3.10;;;1.10;99.90;;;;;;5036755;28;20260;-83
2023/10/18 01:43:25;;;;;;;5.40;3.73;;;1.10;99.90;;;;;;5035582;28;20237;-84
2023/10/18 01:45:52;;;;;;;6.57;3.67;;;1.00;99.90;;;;;;5043544;28;20235;-85
2023/10/18 01:48:19;;;;;;;4.57;3.30;;;1.00;99.90;;;;;;5036429;28;20257;-85
2023/10/18 01:50:50;;;;;;;6.27;3.30;;;1.00;99.90;;;;;;5033564;28;20223;-85
2023/10/18 01:53:18;;;;;;;3.43;2.97;;;1.00;99.90;;;;;;5037258;28;20279;-87
2023/10/18 01:55:51;;;;;;;3.43;2.77;;;1.00;99.90;;;;;;5036431;28;20228;-85
2023/10/18 01:58:23;;;;;;;8.17;3.73;;;1.00;99.90;;;;;;5040052;28;20243;-85
2023/10/18 02:00:52;;;;;;;5.37;3.40;;;1.00;99.90;;;;;;5033463;28;20332;-84
2023/10/18 02:03:19;;;;;;;5.33;3.80;;;1.00;99.90;;;;;;5030770;28;20302;-85
2023/10/18 02:05:47;;;;;;;5.27;3.70;;;1.00;99.90;;;;;;5036858;28;20221;-86
2023/10/18 02:08:15;;;;;;;4.17;3.03;;;1.00;99.90;;;;;;5037449;28;20564;-85
2023/10/18 02:10:44;;;;;;;3.40;2.63;;;1.00;99.90;;;;;;5038404;28;20224;-85
2023/10/18 02:13:13;;;;;;;2.83;2.53;;;0.90;99.90;;;;;;5035216;28;20530;-84
2023/10/18 02:15:42;;;;;;;3.67;2.80;;;1.00;99.90;;;;;;5037358;28;20723;-85
2023/10/18 02:18:09;;;;;;;4.00;2.90;;;1.00;99.90;;;;;;5039477;28;20228;-85
2023/10/18 02:20:37;;;;;;;4.63;3.13;;;0.90;99.90;;;;;;5037054;28;20241;-84
2023/10/18 02:23:10;;;;;;;3.63;2.83;;;0.90;99.90;;;;;;5038426;28;20744;-85
2023/10/18 02:25:43;;;;;;;5.47;3.00;;;0.80;99.90;;;;;;5040816;28;20224;-85
2023/10/18 02:28:22;;;;;;;4.90;2.67;;;0.80;99.90;;;;;;5026629;28;20232;-84
2023/10/18 02:30:57;;;;;;;5.07;3.07;;;0.80;99.90;;;;;;5035568;28;20212;-86
2023/10/18 02:33:36;;;;;;;4.47;2.70;;;0.80;99.90;;;;;;5039688;28;20316;-84
2023/10/18 02:36:05;;;;;;;3.07;2.70;;;0.80;99.90;;;;;;5029388;28;20240;-86
2023/10/18 02:38:33;;;;;;;4.93;2.80;;;0.70;99.90;;;;;;5031975;28;20741;-84
2023/10/18 02:41:02;;;;;;;4.60;2.90;;;0.70;99.90;;;;;;5035785;28;20846;-86
2023/10/18 02:43:30;;;;;;;3.70;2.77;;;0.70;99.90;;;;;;5038553;28;20703;-84
2023/10/18 02:45:58;;;;;;;4.27;2.93;;;0.70;99.90;;;;;;5036570;28;20257;-86
2023/10/18 02:48:25;;;;;;;4.67;2.87;;;0.70;99.90;;;;;;5049768;28;20234;-84
2023/10/18 02:50:57;;;;;;;3.43;2.63;;;0.60;99.90;;;;;;5038506;28;20750;-85
2023/10/18 02:53:24;;;;;;;4.07;2.87;;;0.60;99.90;;;;;;5041602;28;20247;-84
2023/10/18 02:55:55;;;;;;;4.47;2.63;;;0.60;99.90;;;;;;5043046;28;20265;-84
2023/10/18 02:58:27;;;;;;;3.50;2.83;;;0.70;99.90;;;;;;5039269;28;20702;-86
2023/10/18 03:00:55;;;;;;;5.63;3.00;;;0.60;99.90;;;;;;5029024;28;20866;-84
2023/10/18 03:03:25;;;;;;;3.20;2.80;;;0.60;99.90;;;;;;5033356;28;20223;-84
2023/10/18 03:05:53;;;;;;;4.80;3.50;;;0.60;99.90;;;;;;5039700;28;20223;-86
2023/10/18 03:08:21;;;;;;;6.10;3.30;;;0.60;99.90;;;;;;5030856;28;20225;-86
2023/10/18 03:10:51;;;;;;;4.07;3.03;;;0.60;99.90;;;;;;5036838;28;20230;-85
2023/10/18 03:13:23;;;;;;;3.77;2.93;;;0.60;99.90;;;;;;5048599;28;20853;-86
2023/10/18 03:16:04;;;;;;;3.23;2.70;;;0.60;99.90;;;;;;5035297;28;20234;-88
2023/10/18 03:18:36;;;;;;;3.17;2.60;;;0.60;99.90;;;;;;5043289;28;20224;-86
2023/10/18 03:21:08;;;;;;;5.23;2.77;;;0.60;99.90;;;;;;5035821;28;20235;-85
2023/10/18 03:23:44;;;;;;;4.90;2.50;;;0.60;99.90;;;;;;5053724;28;20255;-85
2023/10/18 03:26:11;;;;;;;3.10;2.57;;;0.60;99.90;;;;;;5034591;28;20232;-85
2023/10/18 03:28:43;;;;;;;3.50;2.70;;;0.50;99.90;;;;;;5036579;28;20227;-85
2023/10/18 03:31:21;;;;;;;7.07;3.30;;;0.50;99.90;;;;;;5039206;28;20753;-83
2023/10/18 03:33:59;;;;;;;6.27;3.40;;;0.50;99.90;;;;;;5035304;28;20234;-84
2023/10/18 03:36:27;;;;;;;5.67;3.30;;;0.40;99.90;;;;;;5037964;28;20231;-84
2023/10/18 03:39:00;;;;;;;2.70;2.37;;;0.40;99.90;;;;;;5043403;28;20233;-84
2023/10/18 03:41:33;;;;;;;5.00;2.60;;;0.40;99.90;;;;;;5039814;28;20216;-84
2023/10/18 03:44:06;;;;;;;3.07;2.50;;;0.50;99.90;;;;;;5043850;28;20298;-84
2023/10/18 03:46:46;;;;;;;5.07;2.90;;;0.40;99.90;;;;;;5041368;28;20275;-85
2023/10/18 03:49:24;;;;;;;3.10;2.50;;;0.40;99.90;;;;;;5039737;28;20257;-86
2023/10/18 03:51:54;;;;;;;4.90;2.97;;;0.40;99.90;;;;;;5035808;28;20292;-86
2023/10/18 03:54:23;;;;;;;3.87;2.83;;;0.30;99.90;;;;;;5052827;28;20221;-85
2023/10/18 03:56:53;;;;;;;3.43;2.47;;;0.30;99.90;;;;;;5044120;28;20351;-85
2023/10/18 03:59:21;;;;;;;5.63;2.67;;;0.30;99.90;;;;;;5043915;28;20703;-86
2023/10/18 04:02:05;;;;;;;5.27;2.53;;;0.30;99.90;;;;;;5045569;28;20614;-86
2023/10/18 04:04:35;;;;;;;3.03;2.67;;;0.20;99.90;;;;;;5043303;28;20275;-86
2023/10/18 04:07:12;;;;;;;3.20;2.37;;;0.20;99.90;;;;;;5040159;28;20267;-84
2023/10/18 04:09:43;;;;;;;3.57;2.60;;;0.20;99.90;;;;;;5043483;28;20296;-85
2023/10/18 04:12:13;;;;;;;2.93;2.40;;;0.20;99.90;;;;;;5038452;28;20751;-84
2023/10/18 04:14:41;;;;;;;2.87;2.57;;;0.10;99.90;;;;;;5040960;28;20354;-85
2023/10/18 04:17:18;;;;;;;3.57;2.60;;;0.10;99.90;;;;;;5042196;28;20241;-86
2023/10/18 04:19:47;;;;;;;3.63;2.43;;;0.10;99.90;;;;;;5031568;28;20273;-85
2023/10/18 04:22:14;;;;;;;3.20;2.33;;;0.10;99.90;;;;;;5043139;28;20231;-84
2023/10/18 04:24:41;;;;;;;5.57;3.30;;;0.10;99.90;;;;;;5046655;28;20212;-85
2023/10/18 04:27:10;;;;;;;2.97;2.43;;;0.00;99.90;;;;;;5043419;28;20312;-85
2023/10/18 04:29:39;;;;;;;5.13;3.00;;;0.00;99.90;;;;;;5040019;28;20223;-84
2023/10/18 04:32:17;;;;;;;3.87;3.00;;;0.00;99.90;;;;;;5032651;28;20225;-84
2023/10/18 04:34:46;;;;;;;3.77;2.97;;;0.10;99.90;;;;;;5041684;28;20247;-85
2023/10/18 04:37:14;;;;;;;4.90;3.13;;;0.00;99.90;;;;;;5036932;28;20217;-87
2023/10/18 04:39:41;;;;;;;5.57;3.67;;;0.00;99.90;;;;;;5052195;28;20222;-87
2023/10/18 04:42:08;;;;;;;3.57;2.70;;;0.00;99.90;;;;;;5032567;28;20223;-87
2023/10/18 04:44:36;;;;;;;4.10;3.00;;;0.00;99.90;;;;;;5036836;28;20218;-88
2023/10/18 04:47:13;;;;;;;5.23;3.10;;;0.00;99.90;;;;;;5030123;28;20236;-87
2023/10/18 04:49:40;;;;;;;6.00;3.10;;;0.00;99.90;;;;;;5030800;28;20954;-87
2023/10/18 04:52:08;;;;;;;4.40;2.90;;;0.00;99.90;;;;;;5033556;28;20286;-87
2023/10/18 04:54:41;;;;;;;3.77;2.77;;;0.00;99.90;;;;;;5035431;28;20302;-87
2023/10/18 04:57:10;;;;;;;49.13;4.83;;;0.00;99.90;;;;;;5040826;28;20224;-86
2023/10/18 04:59:45;;;;;;;4.10;2.70;;;0.00;99.90;;;;;;5034761;28;20299;-86
2023/10/18 05:02:17;;;;;;;4.30;2.63;;;0.00;99.90;;;;;;5050036;28;20719;-82
2023/10/18 05:04:44;;;;;;;139.70;9.33;;;0.00;99.90;;;;;;5036319;28;20216;-88
2023/10/18 05:07:15;;;;;;;4.37;2.67;;;0.10;99.90;;;;;;5043697;28;20217;-87
2023/10/18 05:09:43;;;;;;;3.53;2.53;;;0.00;99.90;;;;;;5038659;28;20911;-86
2023/10/18 05:12:27;;;;;;;3.03;2.60;;;0.00;99.90;;;;;;5031517;28;20222;-84
2023/10/18 05:15:09;;;;;;;3.33;2.67;;;0.00;99.90;;;;;;5041556;28;20267;-86
2023/10/18 05:17:42;;;;;;;5.47;2.30;;;0.00;99.90;;;;;;5046678;28;20290;-91
2023/10/18 09:48:39;;;;;;;2.57;1.83;;;13.90;99.90;;;;;;5056324;28;20212;-87
2023/10/18 09:51:08;;;;;;;2.70;2.10;;;14.00;99.90;;;;;;5030131;28;20227;-90
2023/10/18 09:53:41;;;;;;;2.20;1.87;;;14.10;99.90;;;;;;5046120;28;20237;-91
2023/10/18 09:56:11;;;;;;;2.37;1.77;;;14.20;99.90;;;;;;5027396;28;20317;-92
2023/10/18 09:58:42;;;;;;;2.40;1.40;;;14.30;99.90;;;;;;5010005;28;20267;-91
2023/10/18 10:01:14;;;;;;;2.00;1.80;;;14.40;99.90;;;;;;5022956;28;20642;-91
2023/10/18 14:50:51;;;;;;;3.57;2.50;;;12.90;99.60;;;;;;5059960;28;20634;-87
2023/10/18 14:53:18;;;;;;;2.70;2.33;;;12.70;99.20;;;;;;5034187;28;20233;-85
2023/10/18 14:55:45;;;;;;;2.53;2.00;;;12.60;99.80;;;;;;5033798;28;20286;-87
2023/10/18 14:58:12;;;;;;;5.13;2.13;;;12.60;99.90;;;;;;5030535;28;20658;-86
2023/10/18 15:00:39;;;;;;;4.80;2.77;;;12.50;99.90;;;;;;5046386;28;20230;-88
2023/10/18 15:03:10;;;;;;;3.10;2.17;;;12.40;99.90;;;;;;5042351;28;20319;-85
2023/10/18 15:05:38;;;;;;;3.23;2.10;;;12.40;99.90;;;;;;5068080;28;20306;-87
2023/10/18 15:08:07;;;;;;;2.97;2.00;;;12.30;99.90;;;;;;5031407;28;20399;-88
2023/10/18 15:10:33;;;;;;;4.17;2.73;;;12.20;99.90;;;;;;5048941;28;20246;-86
2023/10/18 15:13:01;;;;;;;4.03;2.23;;;12.10;99.90;;;;;;5044126;28;21566;-86
2023/10/18 15:15:28;;;;;;;3.13;1.97;;;12.10;99.90;;;;;;5040085;28;20271;-87
2023/10/18 15:17:55;;;;;;;3.77;2.23;;;11.90;99.90;;;;;;5040484;28;20268;-87
2023/10/18 15:20:22;;;;;;;4.40;2.00;;;11.80;99.90;;;;;;5046401;28;20915;-86
2023/10/18 15:22:49;;;;;;;2.93;1.70;;;11.80;99.90;;;;;;5064000;28;20251;-87
2023/10/18 15:25:18;;;;;;;2.10;1.90;;;11.60;99.90;;;;;;5064702;28;20683;-87
2023/10/18 15:27:44;;;;;;;3.20;2.00;;;11.50;99.90;;;;;;5063633;28;20224;-86
2023/10/18 15:30:16;;;;;;;1.97;1.63;;;11.40;99.90;;;;;;5036960;28;21093;-87
2023/10/18 15:32:45;;;;;;;2.93;1.83;;;11.30;99.90;;;;;;5045483;28;20217;-90
2023/10/18 15:35:12;;;;;;;2.03;1.80;;;11.20;99.90;;;;;;5046215;28;20220;-87
2023/10/18 15:37:41;;;;;;;3.33;1.90;;;11.10;99.90;;;;;;5064422;28;20915;-86
2023/10/18 15:40:13;;;;;;;2.67;2.00;;;11.00;99.90;;;;;;5043451;28;20407;-86
2023/10/18 15:42:41;;;;;;;3.30;1.97;;;10.90;99.90;;;;;;5060109;28;20637;-88
2023/10/18 15:45:11;;;;;;;2.80;1.53;;;10.80;99.90;;;;;;5045075;28;20220;-87
2023/10/18 15:47:38;;;;;;;2.90;1.77;;;10.70;99.90;;;;;;5066114;28;20306;-85
2023/10/18 15:50:07;;;;;;;4.50;1.93;;;10.50;99.90;;;;;;5056896;28;20223;-86
2023/10/18 15:52:35;;;;;;;2.20;1.60;;;10.50;99.90;;;;;;5036766;28;20211;-87
2023/10/18 15:55:02;;;;;;;2.60;1.67;;;10.40;99.90;;;;;;5046602;28;20311;-86
2023/10/18 15:57:28;;;;;;;2.80;1.60;;;10.30;99.90;;;;;;5045120;28;20308;-87
2023/10/18 15:59:57;;;;;;;3.00;1.80;;;10.20;99.90;;;;;;5042555;28;20314;-87
2023/10/18 16:02:24;;;;;;;5.73;2.17;;;10.10;99.90;;;;;;5061524;28;20302;-87
2023/10/18 16:04:53;;;;;;;4.93;1.53;;;10.00;99.90;;;;;;5037892;28;20227;-87
2023/10/18 16:07:22;;;;;;;1.90;1.53;;;9.90;99.90;;;;;;5027941;28;20314;-88
2023/10/18 16:09:50;;;;;;;1.83;1.47;;;9.80;99.90;;;;;;5042046;28;20867;-89
2023/10/18 16:12:17;;;;;;;4.10;1.43;;;9.70;99.90;;;;;;5019048;28;20219;-89
2023/10/18 16:14:44;;;;;;;3.23;1.70;;;9.60;99.90;;;;;;5053480;28;20223;-88
2023/10/18 16:17:13;;;;;;;3.30;1.70;;;9.50;99.90;;;;;;5058210;28;20226;-88
2023/10/18 16:19:39;;;;;;;3.57;1.57;;;9.40;99.90;;;;;;5030363;28;20319;-87
2023/10/18 16:22:07;;;;;;;2.43;1.50;;;9.30;99.90;;;;;;5038521;28;20358;-87
2023/10/18 16:24:33;;;;;;;4.07;1.47;;;9.30;99.90;;;;;;5035092;28;20235;-87
2023/10/18 16:27:00;;;;;;;3.07;1.90;;;9.20;99.90;;;;;;5054420;28;20974;-87
2023/10/18 16:29:27;;;;;;;2.43;1.70;;;9.10;99.90;;;;;;5055609;28;20269;-87
2023/10/18 16:31:54;;;;;;;2.97;1.97;;;9.00;99.90;;;;;;5054422;28;20223;-87
2023/10/18 16:34:22;;;;;;;3.53;1.73;;;8.90;99.90;;;;;;5031814;28;20235;-89
2023/10/18 16:36:49;;;;;;;3.30;1.97;;;8.90;99.90;;;;;;5039680;28;20227;-88
2023/10/18 16:39:18;;;;;;;2.83;1.70;;;8.80;99.90;;;;;;5030648;28;20223;-87
2023/10/18 16:41:45;;;;;;;2.00;1.80;;;8.70;99.90;;;;;;5034295;28;20813;-87
2023/10/18 16:44:14;;;;;;;5.27;2.00;;;8.70;99.90;;;;;;5036264;28;20590;-90
2023/10/18 16:46:40;;;;;;;2.30;1.57;;;8.60;99.90;;;;;;5036149;28;20227;-88
2023/10/18 16:49:12;;;;;;;3.03;1.70;;;8.50;99.90;;;;;;5042610;28;20262;-88
2023/10/18 16:51:40;;;;;;;2.80;1.90;;;8.50;99.90;;;;;;5051634;28;20303;-88
2023/10/18 16:54:07;;;;;;;3.10;1.90;;;8.40;99.90;;;;;;5041860;28;20222;-89
2023/10/18 16:56:34;;;;;;;2.37;1.83;;;8.30;99.90;;;;;;5039109;28;20763;-87
2023/10/18 16:59:05;;;;;;;2.50;1.77;;;8.30;99.90;;;;;;5045380;28;20331;-87
2023/10/18 17:01:32;;;;;;;3.00;2.23;;;8.20;99.90;;;;;;5039799;28;20240;-88
2023/10/18 17:04:00;;;;;;;2.33;1.93;;;8.20;99.90;;;;;;5059159;28;20231;-91
2023/10/18 17:06:28;;;;;;;3.43;1.70;;;8.20;99.90;;;;;;5042108;28;20222;-89
2023/10/18 17:08:57;;;;;;;2.23;1.83;;;8.00;99.90;;;;;;5049997;28;20228;-87
2023/10/18 17:11:24;;;;;;;4.60;1.93;;;8.00;99.90;;;;;;5042847;28;20226;-87
2023/10/18 17:13:53;;;;;;;4.87;1.80;;;7.90;99.90;;;;;;5046008;28;20232;-86
2023/10/18 17:16:21;;;;;;;2.80;2.30;;;7.90;99.90;;;;;;5036996;28;20321;-87
2023/10/18 17:18:50;;;;;;;3.50;2.50;;;7.80;99.90;;;;;;5035396;28;20228;-90
2023/10/18 17:21:17;;;;;;;4.43;2.67;;;7.80;99.90;;;;;;5041107;28;20230;-89
2023/10/18 17:23:44;;;;;;;3.77;2.60;;;7.70;99.90;;;;;;5041640;28;20231;-89
2023/10/18 17:26:14;;;;;;;4.33;2.40;;;7.70;99.90;;;;;;5044240;28;20222;-90
2023/10/18 17:28:41;;;;;;;4.50;2.57;;;7.60;99.90;;;;;;5043498;28;20299;-89
2023/10/18 17:31:08;;;;;;;4.13;2.03;;;7.60;99.90;;;;;;5039452;28;20254;-90
2023/10/18 17:33:35;;;;;;;4.00;2.30;;;7.50;99.90;;;;;;5013023;28;20227;-92
2023/10/18 17:36:02;;;;;;;6.13;2.20;;;7.50;99.90;;;;;;5035843;28;20258;-92
2023/10/18 17:38:29;;;;;;;3.43;2.30;;;7.50;99.90;;;;;;5039956;28;20227;-92
2023/10/18 17:41:14;;;;;;;3.67;2.90;;;7.40;99.90;;;;;;5046674;28;20309;-92
2023/10/18 17:43:57;;;;;;;3.27;2.40;;;7.40;99.90;;;;;;5032940;28;20720;-90
2023/10/18 17:46:24;;;;;;;5.73;3.07;;;7.30;99.90;;;;;;5033283;28;20280;-92
2023/10/18 17:49:09;;;;;;;5.00;3.30;;;7.30;99.90;;;;;;5049659;28;20222;-91
2023/10/18 17:52:04;;;;;;;5.97;3.27;;;7.30;99.90;;;;;;5048658;28;20269;-92
2023/10/18 17:54:32;;;;;;;4.90;3.00;;;7.30;99.90;;;;;;5052367;28;20254;-91
2023/10/18 17:57:00;;;;;;;4.63;3.60;;;7.30;99.90;;;;;;5053641;28;20807;-90
2023/10/18 17:59:30;;;;;;;5.70;4.50;;;7.20;99.90;;;;;;5039009;28;20289;-91
2023/10/18 18:01:59;;;;;;;5.50;4.60;;;7.30;99.90;;;;;;5041302;28;20731;-92
2023/10/18 18:04:26;;;;;;;7.40;4.80;;;7.20;99.90;;;;;;5042215;28;20233;-90
